Current Weather

Morristown Muni

Morristown, New Jersey (KMMU)

Report from: Friday, February 23, 2024 2:50 PM EST
Current time: Friday, February 23, 2024 3:06 PM EST

Nearby weather – Weather history – Daily summaries
Weather forecast

Temperature8.0°C (46.4°F)
Wind chill6.1°C (42.9°F)
Dew point4.0°C (39.2°F)
Winds 6 kts (3.1 m/s, 6.9 mph) North (360°)
Visibility10 mi. (16.1 km)
Clouds Scattered clouds 6,000 ft. (1,829 m)
Ceiling: Broken clouds 8,000 ft. (2,438 m)
Altimeter29.46 in.Hg (998 mB)
Relative humidity76 %
Density altitude-187 ft. (-57 m)
Flight conditions Visual Meteorological Conditions
Raw dataKMMU 231950Z 36006KT 10SM SCT060 BKN080 08/04 A2946
An error has occurred. This application may no longer respond until reloaded. Reload 🗙